createdAt,value
2023-05-06T00:03:05.503Z,6.53
2023-05-06T00:08:09.682Z,7.70
2023-05-06T00:13:12.770Z,6.20
2023-05-06T00:18:15.789Z,6.20
2023-05-06T00:23:19.775Z,6.28
2023-05-06T00:28:22.420Z,6.65
2023-05-06T00:33:25.152Z,7.25
2023-05-06T00:38:29.175Z,5.45
2023-05-06T00:43:31.801Z,6.40
2023-05-06T00:48:34.516Z,5.20
2023-05-06T00:53:38.576Z,5.90
2023-05-06T00:58:41.226Z,5.85
2023-05-06T01:03:44.333Z,6.10
2023-05-06T01:09:08.771Z,6.68
2023-05-06T01:14:17.976Z,5.53
2023-05-06T01:19:35.743Z,5.57
2023-05-06T01:24:40.996Z,4.85
2023-05-06T01:29:45.484Z,7.50
2023-05-06T01:34:54.704Z,5.43
2023-05-06T01:40:00.286Z,5.78
2023-05-06T01:45:04.217Z,5.65
2023-05-06T01:50:07.889Z,5.13
2023-05-06T01:55:12.102Z,5.75
2023-05-06T02:00:15.891Z,5.30
2023-05-06T02:05:19.452Z,5.35
2023-05-06T02:10:27.404Z,5.88
2023-05-06T02:15:37.482Z,5.28
2023-05-06T02:20:41.606Z,4.78
2023-05-06T02:25:51.797Z,4.68
2023-05-06T02:30:56.767Z,4.93
2023-05-06T02:35:59.451Z,5.22
2023-05-06T02:41:03.647Z,4.85
2023-05-06T02:46:06.380Z,4.40
2023-05-06T02:51:09.028Z,5.28
2023-05-06T02:56:13.021Z,4.63
2023-05-06T03:01:15.729Z,5.65
2023-05-06T03:06:18.411Z,4.95
2023-05-06T03:11:23.131Z,5.60
2023-05-06T03:16:26.402Z,4.32
2023-05-06T03:21:33.164Z,4.15
2023-05-06T03:26:37.223Z,4.32
2023-05-06T03:31:40.772Z,4.47
2023-05-06T03:36:44.277Z,5.55
2023-05-06T03:41:48.447Z,4.20
2023-05-06T03:46:51.784Z,4.10
2023-05-06T03:51:55.075Z,4.35
2023-05-06T03:57:02.455Z,4.43
2023-05-06T04:02:05.954Z,4.45
2023-05-06T04:07:11.539Z,4.40
2023-05-06T04:12:15.728Z,4.32
2023-05-06T04:17:18.455Z,4.72
2023-05-06T04:22:22.625Z,4.25
2023-05-06T04:27:29.632Z,4.13
2023-05-06T04:32:34.048Z,5.60
2023-05-06T04:37:37.616Z,3.60
2023-05-06T04:42:47.035Z,4.78
2023-05-06T04:47:55.643Z,3.85
2023-05-06T04:52:58.459Z,3.97
2023-05-06T04:58:02.559Z,3.83
2023-05-06T05:03:05.588Z,4.00
2023-05-06T05:08:08.505Z,3.25
2023-05-06T05:13:14.574Z,4.30
2023-05-06T05:18:18.067Z,3.47
2023-05-06T05:23:22.544Z,3.55
2023-05-06T05:28:26.635Z,3.38
2023-05-06T05:33:29.571Z,3.00
2023-05-06T05:38:32.440Z,3.10
2023-05-06T05:43:37.153Z,3.22
2023-05-06T05:48:40.628Z,2.78
2023-05-06T05:53:44.116Z,3.20
2023-05-06T05:58:49.053Z,2.55
2023-05-06T06:03:52.467Z,2.83
2023-05-06T06:08:55.329Z,3.03
2023-05-06T06:13:59.813Z,2.70
2023-05-06T06:19:04.154Z,2.88
2023-05-06T06:24:07.620Z,2.30
2023-05-06T06:29:12.278Z,2.80
2023-05-06T06:34:14.979Z,2.70
2023-05-06T06:39:17.635Z,2.50
2023-05-06T06:44:21.646Z,2.35
2023-05-06T06:49:24.260Z,2.60
2023-05-06T06:54:26.983Z,2.13
2023-05-06T06:59:31.050Z,2.20
2023-05-06T07:04:33.678Z,2.55
2023-05-06T07:09:37.008Z,2.17
2023-05-06T07:14:42.401Z,2.30
2023-05-06T07:19:45.047Z,2.13
2023-05-06T07:24:47.666Z,2.25
2023-05-06T07:29:51.683Z,2.13
2023-05-06T07:34:54.318Z,2.20
2023-05-06T07:39:57.954Z,2.75
2023-05-06T07:45:01.874Z,1.90
2023-05-06T07:50:06.710Z,2.28
2023-05-06T07:55:11.192Z,2.08
2023-05-06T08:00:16.154Z,6.47
2023-05-06T08:05:19.732Z,91.18
2023-05-06T08:10:23.102Z,96.25
2023-05-06T08:15:27.130Z,99.63
2023-05-06T08:20:29.798Z,107.78
2023-05-06T08:25:32.455Z,88.55
2023-05-06T08:30:36.597Z,93.43
2023-05-06T08:35:39.219Z,86.57
2023-05-06T08:40:44.133Z,81.72
2023-05-06T08:45:49.115Z,74.80
2023-05-06T08:50:51.969Z,78.55
2023-05-06T08:55:55.334Z,68.07
2023-05-06T09:01:00.123Z,71.72
2023-05-06T09:06:02.767Z,67.97
2023-05-06T09:11:20.112Z,67.88
2023-05-06T09:16:31.557Z,60.63
2023-05-06T09:21:35.184Z,66.90
2023-05-06T09:26:39.102Z,60.50
2023-05-06T09:31:44.477Z,59.17
2023-05-06T09:36:47.205Z,61.78
2023-05-06T09:41:49.862Z,56.80
2023-05-06T09:46:53.854Z,57.95
2023-05-06T09:51:57.668Z,55.20
2023-05-06T09:57:01.113Z,50.75
2023-05-06T10:02:05.966Z,46.90
2023-05-06T10:07:09.875Z,47.22
2023-05-06T10:12:12.553Z,40.30
2023-05-06T10:17:18.056Z,40.97
2023-05-06T10:22:26.984Z,33.33
2023-05-06T10:27:32.148Z,33.90
2023-05-06T10:32:36.291Z,32.13
2023-05-06T10:37:39.592Z,32.83
2023-05-06T10:42:42.229Z,25.80
2023-05-06T10:48:10.819Z,25.13
2023-05-06T10:53:13.578Z,21.27
2023-05-06T10:58:17.391Z,22.85
2023-05-06T11:03:24.777Z,21.50
2023-05-06T11:08:28.319Z,19.92
2023-05-06T11:13:35.859Z,18.67
2023-05-06T11:18:43.739Z,20.10
2023-05-06T11:24:07.914Z,18.50
2023-05-06T11:29:10.609Z,17.63
2023-05-06T11:34:21.682Z,18.27
2023-05-06T11:39:24.277Z,14.80
2023-05-06T11:44:31.869Z,14.05
2023-05-06T11:49:41.011Z,14.38
2023-05-06T11:54:43.786Z,14.82
2023-05-06T11:59:46.393Z,13.55
2023-05-06T12:04:51.230Z,12.20
2023-05-06T12:09:53.949Z,12.60
2023-05-06T12:14:56.680Z,11.23
2023-05-06T12:20:00.862Z,11.07
2023-05-06T12:25:14.172Z,10.70
2023-05-06T12:30:16.810Z,9.55
2023-05-06T12:35:27.486Z,9.35
2023-05-06T12:40:30.234Z,8.77
2023-05-06T12:45:33.123Z,8.98
2023-05-06T12:50:38.587Z,9.10
2023-05-06T12:55:42.237Z,10.00
2023-05-06T13:00:45.002Z,10.30
2023-05-06T13:05:50.282Z,7.45
2023-05-06T13:10:53.109Z,7.90
2023-05-06T13:15:55.706Z,7.43
2023-05-06T13:21:00.674Z,6.28
2023-05-06T13:26:05.746Z,7.90
2023-05-06T13:31:09.139Z,7.68
2023-05-06T13:36:13.122Z,5.68
2023-05-06T13:41:16.354Z,9.65
2023-05-06T13:46:19.052Z,6.15
2023-05-06T13:51:23.073Z,6.07
2023-05-06T13:56:25.929Z,6.88
2023-05-06T14:01:28.658Z,7.15
2023-05-06T14:06:32.710Z,7.43
2023-05-06T14:11:35.441Z,6.65
2023-05-06T14:16:38.251Z,5.85
2023-05-06T14:21:42.320Z,5.55
2023-05-06T14:26:45.995Z,5.80
2023-05-06T14:31:48.675Z,5.35
2023-05-06T14:36:52.666Z,5.15
2023-05-06T14:41:55.311Z,4.90
2023-05-06T14:46:57.960Z,4.45
2023-05-06T14:52:01.942Z,4.63
2023-05-06T14:57:04.774Z,4.78
2023-05-06T15:02:08.730Z,5.03
2023-05-06T15:07:13.028Z,4.55
2023-05-06T15:12:16.185Z,3.88
2023-05-06T15:17:18.786Z,4.95
2023-05-06T15:22:23.031Z,4.00
2023-05-06T15:27:25.674Z,4.18
2023-05-06T15:32:28.308Z,4.32
2023-05-06T15:37:33.120Z,4.25
2023-05-06T15:42:38.425Z,3.67
2023-05-06T15:47:41.205Z,3.72
2023-05-06T15:52:45.633Z,4.28
2023-05-06T15:57:48.282Z,3.08
2023-05-06T16:02:51.021Z,4.57
2023-05-06T16:07:55.864Z,2.97
2023-05-06T16:12:58.571Z,4.15
2023-05-06T16:18:01.499Z,3.33
2023-05-06T16:23:05.811Z,2.67
2023-05-06T16:28:08.690Z,4.55
2023-05-06T16:33:12.416Z,3.05
2023-05-06T16:38:16.342Z,2.42
2023-05-06T16:43:19.452Z,2.65
2023-05-06T16:48:22.324Z,3.17
2023-05-06T16:53:27.684Z,2.53
2023-05-06T16:58:30.676Z,2.78
2023-05-06T17:03:33.385Z,2.67
2023-05-06T17:08:37.526Z,3.83
2023-05-06T17:13:40.256Z,3.75
2023-05-06T17:18:42.932Z,2.63
2023-05-06T17:23:46.912Z,3.00
2023-05-06T17:28:50.824Z,2.67
2023-05-06T17:33:53.461Z,3.10
2023-05-06T17:39:04.590Z,2.00
2023-05-06T17:44:07.629Z,3.03
2023-05-06T17:49:10.611Z,2.97
2023-05-06T17:54:14.636Z,5.63
2023-05-06T17:59:19.700Z,4.68
2023-05-06T18:04:22.308Z,8.02
2023-05-06T18:09:26.317Z,4.90
2023-05-06T18:14:29.023Z,6.25
2023-05-06T18:19:31.605Z,2.60
2023-05-06T18:24:37.109Z,4.90
2023-05-06T18:29:41.216Z,5.53
2023-05-06T18:34:43.979Z,4.22
2023-05-06T18:39:48.275Z,4.10
2023-05-06T18:44:51.213Z,3.22
2023-05-06T18:49:53.905Z,2.55
2023-05-06T18:54:57.867Z,3.30
2023-05-06T19:00:00.770Z,3.05
2023-05-06T19:05:03.455Z,2.53
2023-05-06T19:10:08.664Z,2.88
2023-05-06T19:15:13.933Z,3.75
2023-05-06T19:20:16.639Z,2.33
2023-05-06T19:25:20.805Z,2.22
2023-05-06T19:30:23.442Z,3.03
2023-05-06T19:35:26.204Z,2.97
2023-05-06T19:40:31.005Z,2.70
2023-05-06T19:45:34.799Z,2.88
2023-05-06T19:50:37.526Z,3.40
2023-05-06T19:55:41.460Z,3.72
2023-05-06T20:00:44.124Z,4.20
2023-05-06T20:05:46.780Z,3.85
2023-05-06T20:10:50.884Z,3.42
2023-05-06T20:15:54.436Z,3.58
2023-05-06T20:20:57.115Z,2.42
2023-05-06T20:26:01.102Z,5.93
2023-05-06T20:31:04.110Z,2.72
2023-05-06T20:36:06.944Z,4.63
2023-05-06T20:41:10.900Z,3.25
2023-05-06T20:46:13.577Z,3.38
2023-05-06T20:51:16.774Z,2.55
2023-05-06T20:56:22.994Z,3.10
2023-05-06T21:01:26.433Z,3.63
2023-05-06T21:06:29.086Z,2.67
2023-05-06T21:11:33.116Z,5.78
2023-05-06T21:16:35.924Z,5.22
2023-05-06T21:21:38.653Z,5.82
2023-05-06T21:26:42.703Z,8.32
2023-05-06T21:31:45.426Z,9.85
2023-05-06T21:36:48.051Z,8.77
2023-05-06T21:41:52.001Z,7.00
2023-05-06T21:46:54.687Z,5.30
2023-05-06T21:51:57.391Z,4.97
2023-05-06T21:57:01.371Z,4.32
2023-05-06T22:02:04.281Z,3.95
2023-05-06T22:07:07.830Z,5.20
2023-05-06T22:12:12.719Z,4.80
2023-05-06T22:17:15.602Z,4.97
2023-05-06T22:22:18.274Z,5.47
2023-05-06T22:27:22.292Z,5.50
2023-05-06T22:32:24.933Z,7.28
2023-05-06T22:37:27.642Z,5.57
2023-05-06T22:42:31.591Z,4.32
2023-05-06T22:47:34.353Z,5.85
2023-05-06T22:52:37.930Z,5.05
2023-05-06T22:57:41.938Z,4.75
2023-05-06T23:02:44.752Z,5.28
2023-05-06T23:07:47.569Z,7.50
2023-05-06T23:12:51.566Z,6.20
2023-05-06T23:17:54.244Z,5.03
2023-05-06T23:22:57.077Z,4.10
2023-05-06T23:28:01.087Z,8.02
2023-05-06T23:33:03.724Z,3.70
2023-05-06T23:38:06.419Z,4.80
2023-05-06T23:43:11.300Z,4.45
2023-05-06T23:48:14.019Z,4.43
2023-05-06T23:53:16.705Z,4.95
2023-05-06T23:58:20.798Z,4.38
